createdAt,value
2023-06-10T00:02:09.031Z,86.70
2023-06-10T00:04:37.639Z,86.80
2023-06-10T00:07:05.144Z,87.00
2023-06-10T00:09:32.644Z,87.20
2023-06-10T00:12:01.709Z,87.50
2023-06-10T00:14:28.934Z,87.50
2023-06-10T00:16:56.511Z,87.50
2023-06-10T00:19:26.647Z,87.80
2023-06-10T00:21:55.017Z,88.10
2023-06-10T00:24:22.021Z,88.40
2023-06-10T00:26:49.035Z,88.50
2023-06-10T00:29:16.088Z,88.50
2023-06-10T00:31:43.296Z,89.00
2023-06-10T00:34:10.318Z,89.10
2023-06-10T00:36:37.222Z,89.40
2023-06-10T00:39:05.706Z,89.80
2023-06-10T00:41:34.878Z,90.10
2023-06-10T00:44:01.950Z,90.30
2023-06-10T00:46:29.196Z,90.40
2023-06-10T00:48:57.192Z,90.40
2023-06-10T00:51:24.205Z,90.40
2023-06-10T00:53:51.694Z,90.60
2023-06-10T00:56:20.223Z,90.70
2023-06-10T00:58:48.454Z,90.80
2023-06-10T01:01:15.364Z,90.80
2023-06-10T01:03:43.020Z,90.80
2023-06-10T01:06:30.275Z,91.10
2023-06-10T01:09:07.444Z,91.10
2023-06-10T01:11:48.630Z,91.20
2023-06-10T01:14:17.572Z,91.20
2023-06-10T01:16:46.745Z,91.20
2023-06-10T01:19:15.386Z,91.20
2023-06-10T01:21:45.986Z,91.10
2023-06-10T01:24:14.832Z,91.00
2023-06-10T01:26:43.789Z,91.20
2023-06-10T01:29:15.907Z,91.40
2023-06-10T01:31:46.947Z,91.60
2023-06-10T01:34:17.434Z,91.80
2023-06-10T01:36:48.890Z,91.90
2023-06-10T01:39:17.418Z,91.90
2023-06-10T01:41:44.672Z,92.00
2023-06-10T01:44:11.962Z,92.00
2023-06-10T01:46:41.029Z,92.10
2023-06-10T01:49:08.147Z,92.20
2023-06-10T01:51:35.078Z,92.50
2023-06-10T01:54:03.605Z,92.70
2023-06-10T01:56:30.510Z,92.80
2023-06-10T01:59:00.252Z,92.70
2023-06-10T02:01:27.699Z,92.80
2023-06-10T02:03:54.790Z,92.70
2023-06-10T02:06:21.750Z,92.70
2023-06-10T02:08:48.719Z,92.80
2023-06-10T02:11:17.121Z,92.90
2023-06-10T02:13:44.129Z,92.90
2023-06-10T02:16:13.955Z,92.90
2023-06-10T02:18:43.961Z,93.00
2023-06-10T02:21:11.622Z,93.10
2023-06-10T02:23:38.734Z,93.10
2023-06-10T02:26:05.978Z,93.20
2023-06-10T02:28:34.321Z,93.40
2023-06-10T02:31:01.554Z,93.70
2023-06-10T02:33:29.252Z,93.90
2023-06-10T02:35:56.404Z,94.00
2023-06-10T02:38:24.787Z,94.00
2023-06-10T02:40:51.799Z,94.10
2023-06-10T02:43:18.850Z,94.10
2023-06-10T02:45:47.602Z,94.00
2023-06-10T02:48:15.996Z,93.90
2023-06-10T02:50:43.265Z,94.00
2023-06-10T02:53:30.459Z,94.10
2023-06-10T02:56:05.273Z,94.10
2023-06-10T02:58:32.594Z,94.20
2023-06-10T03:01:01.721Z,94.30
2023-06-10T03:03:36.010Z,94.30
2023-06-10T03:06:09.576Z,94.40
2023-06-10T03:08:36.800Z,94.40
2023-06-10T03:11:08.917Z,94.40
2023-06-10T03:13:36.966Z,94.50
2023-06-10T03:16:06.270Z,94.70
2023-06-10T03:18:36.266Z,94.70
2023-06-10T03:21:04.074Z,94.70
2023-06-10T03:23:31.566Z,94.80
2023-06-10T03:25:58.932Z,94.90
2023-06-10T03:28:26.159Z,95.10
2023-06-10T03:30:53.545Z,95.20
2023-06-10T03:33:24.789Z,95.30
2023-06-10T03:35:52.152Z,95.30
2023-06-10T03:38:19.492Z,95.50
2023-06-10T03:40:46.794Z,95.70
2023-06-10T03:43:13.928Z,95.50
2023-06-10T03:45:42.374Z,95.70
2023-06-10T03:48:10.440Z,95.60
2023-06-10T03:50:48.701Z,95.70
2023-06-10T03:53:15.873Z,95.80
2023-06-10T03:55:44.247Z,96.00
2023-06-10T03:58:14.197Z,95.90
2023-06-10T04:00:46.574Z,95.80
2023-06-10T04:03:16.493Z,95.90
2023-06-10T04:05:48.250Z,95.90
2023-06-10T04:08:15.690Z,96.10
2023-06-10T04:10:42.629Z,96.20
2023-06-10T04:13:10.712Z,96.30
2023-06-10T04:15:44.180Z,96.40
2023-06-10T04:18:16.143Z,96.30
2023-06-10T04:20:45.469Z,96.30
2023-06-10T04:23:13.946Z,96.20
2023-06-10T04:25:43.326Z,96.30
2023-06-10T04:28:10.453Z,96.10
2023-06-10T04:30:37.812Z,96.10
2023-06-10T04:33:07.965Z,96.00
2023-06-10T04:35:35.031Z,96.00
2023-06-10T04:38:04.257Z,96.10
2023-06-10T04:40:32.953Z,96.10
2023-06-10T04:43:00.677Z,96.10
2023-06-10T04:45:27.609Z,96.10
2023-06-10T04:47:56.902Z,96.20
2023-06-10T04:50:23.954Z,96.20
2023-06-10T04:52:50.992Z,96.00
2023-06-10T04:55:18.128Z,95.90
2023-06-10T04:57:46.399Z,95.80
2023-06-10T05:00:14.630Z,95.60
2023-06-10T05:02:41.574Z,95.90
2023-06-10T05:05:09.262Z,95.90
2023-06-10T05:07:36.429Z,95.90
2023-06-10T05:10:04.150Z,95.80
2023-06-10T05:12:31.086Z,96.10
2023-06-10T05:14:59.331Z,95.50
2023-06-10T05:17:26.449Z,95.70
2023-06-10T05:19:54.019Z,95.50
2023-06-10T05:22:20.990Z,95.40
2023-06-10T05:24:47.949Z,95.30
2023-06-10T05:27:14.962Z,94.90
2023-06-10T05:29:41.927Z,94.90
2023-06-10T05:32:10.635Z,94.90
2023-06-10T05:34:37.980Z,94.90
2023-06-10T05:37:05.883Z,94.80
2023-06-10T05:39:32.829Z,94.80
2023-06-10T05:42:00.534Z,94.70
2023-06-10T05:44:27.525Z,94.60
2023-06-10T05:46:54.460Z,94.40
2023-06-10T05:49:22.811Z,94.50
2023-06-10T05:51:49.766Z,94.50
2023-06-10T05:54:16.687Z,94.70
2023-06-10T05:56:43.568Z,94.80
2023-06-10T05:59:10.760Z,94.90
2023-06-10T06:01:37.792Z,94.70
2023-06-10T06:04:04.947Z,94.70
2023-06-10T06:06:33.348Z,94.70
2023-06-10T06:09:00.301Z,94.60
2023-06-10T06:11:27.456Z,94.60
2023-06-10T06:13:54.397Z,94.40
2023-06-10T06:16:21.465Z,94.30
2023-06-10T06:18:48.516Z,94.50
2023-06-10T06:21:15.492Z,94.60
2023-06-10T06:23:43.809Z,94.60
2023-06-10T06:26:10.822Z,94.30
2023-06-10T06:28:37.767Z,94.50
2023-06-10T06:31:04.753Z,94.10
2023-06-10T06:33:31.734Z,94.20
2023-06-10T06:35:58.761Z,93.80
2023-06-10T06:38:25.904Z,94.00
2023-06-10T06:40:55.202Z,93.80
2023-06-10T06:43:22.122Z,94.00
2023-06-10T06:45:56.689Z,94.30
2023-06-10T06:48:23.755Z,93.60
2023-06-10T06:50:50.981Z,93.70
2023-06-10T06:53:18.037Z,93.70
2023-06-10T06:55:44.983Z,93.60
2023-06-10T06:58:13.260Z,93.50
2023-06-10T07:00:40.276Z,93.40
2023-06-10T07:03:07.424Z,93.40
2023-06-10T07:05:34.534Z,93.40
2023-06-10T07:08:01.589Z,93.10
2023-06-10T07:10:29.428Z,93.10
2023-06-10T07:12:56.360Z,92.80
2023-06-10T07:15:24.681Z,92.60
2023-06-10T07:17:51.681Z,92.70
2023-06-10T07:20:19.138Z,93.00
2023-06-10T07:22:46.118Z,92.90
2023-06-10T07:25:13.149Z,92.80
2023-06-10T07:27:40.250Z,92.90
2023-06-10T07:30:09.569Z,92.40
2023-06-10T07:32:37.941Z,92.40
2023-06-10T07:35:08.226Z,92.40
2023-06-10T07:37:35.388Z,92.70
2023-06-10T07:40:02.363Z,92.40
2023-06-10T07:42:29.287Z,92.20
2023-06-10T07:44:56.530Z,92.10
2023-06-10T07:47:23.592Z,92.10
2023-06-10T07:49:51.956Z,92.20
2023-06-10T07:52:18.885Z,91.50
2023-06-10T07:54:45.999Z,91.60
2023-06-10T07:57:12.931Z,91.60
2023-06-10T07:59:39.933Z,91.50
2023-06-10T08:02:07.001Z,91.30
2023-06-10T08:04:36.308Z,91.20
2023-06-10T08:07:05.334Z,91.10
2023-06-10T08:09:32.258Z,91.10
2023-06-10T08:11:59.340Z,91.70
2023-06-10T08:14:26.263Z,91.80
2023-06-10T08:16:53.217Z,91.50
2023-06-10T08:19:20.227Z,91.20
2023-06-10T08:21:47.181Z,90.60
2023-06-10T08:24:17.565Z,90.80
2023-06-10T08:26:44.848Z,91.50
2023-06-10T08:29:13.633Z,90.90
2023-06-10T08:31:43.956Z,90.70
2023-06-10T08:34:11.252Z,90.30
2023-06-10T08:36:38.252Z,90.00
2023-06-10T08:39:05.404Z,88.70
2023-06-10T08:41:37.376Z,89.30
2023-06-10T08:44:11.976Z,89.40
2023-06-10T08:46:43.183Z,87.60
2023-06-10T08:49:10.474Z,87.80
2023-06-10T08:51:38.403Z,87.20
2023-06-10T08:54:19.847Z,86.50
2023-06-10T08:56:52.309Z,85.90
2023-06-10T08:59:20.876Z,86.00
2023-06-10T09:01:48.707Z,89.50
2023-06-10T09:04:17.496Z,84.80
2023-06-10T09:06:45.903Z,86.10
2023-06-10T09:09:14.653Z,86.00
2023-06-10T09:11:43.134Z,86.20
2023-06-10T09:14:13.058Z,86.50
2023-06-10T09:16:40.410Z,85.90
2023-06-10T09:19:11.182Z,86.10
2023-06-10T09:21:40.969Z,85.30
2023-06-10T09:24:08.076Z,84.90
2023-06-10T09:26:35.219Z,84.80
2023-06-10T09:29:06.245Z,83.30
2023-06-10T09:31:36.779Z,83.50
2023-06-10T09:34:08.578Z,83.40
2023-06-10T09:36:36.786Z,82.40
2023-06-10T09:39:04.115Z,82.10
2023-06-10T09:41:35.648Z,83.30
2023-06-10T09:44:03.644Z,82.60
2023-06-10T09:46:34.156Z,82.30
2023-06-10T09:49:01.364Z,82.40
2023-06-10T09:51:28.435Z,81.90
2023-06-10T09:53:55.604Z,81.60
2023-06-10T09:56:33.292Z,80.70
2023-06-10T09:59:00.313Z,80.80
2023-06-10T10:01:27.481Z,79.80
2023-06-10T10:03:56.112Z,79.40
2023-06-10T10:06:23.528Z,79.60
2023-06-10T10:08:51.739Z,77.90
2023-06-10T10:11:20.648Z,78.00
2023-06-10T10:13:50.079Z,76.80
2023-06-10T10:16:20.068Z,77.50
2023-06-10T10:18:54.015Z,75.80
2023-06-10T10:21:25.662Z,72.90
2023-06-10T10:23:57.982Z,72.10
2023-06-10T10:26:27.406Z,73.40
2023-06-10T10:29:03.920Z,73.30
2023-06-10T10:31:33.749Z,72.40
2023-06-10T10:34:02.107Z,73.30
2023-06-10T10:36:30.938Z,73.00
2023-06-10T10:38:59.508Z,72.90
2023-06-10T10:41:28.438Z,71.80
2023-06-10T10:43:56.137Z,71.90
2023-06-10T10:46:23.285Z,70.80
2023-06-10T10:48:55.127Z,69.50
2023-06-10T10:51:23.873Z,68.50
2023-06-10T10:54:14.802Z,67.80
2023-06-10T10:57:14.277Z,67.00
2023-06-10T10:59:53.531Z,67.30
2023-06-10T11:02:34.344Z,67.30
2023-06-10T11:05:02.412Z,65.80
2023-06-10T11:07:31.145Z,63.50
2023-06-10T11:10:04.330Z,63.80
2023-06-10T11:12:43.303Z,62.20
2023-06-10T11:15:10.658Z,63.30
2023-06-10T11:17:37.876Z,62.60
2023-06-10T11:20:06.553Z,61.20
2023-06-10T11:22:33.532Z,59.80
2023-06-10T11:25:01.765Z,59.00
2023-06-10T11:27:39.890Z,59.60
2023-06-10T11:30:20.977Z,59.50
2023-06-10T11:32:53.917Z,58.60
2023-06-10T11:35:22.433Z,57.70
2023-06-10T11:37:50.205Z,58.50
2023-06-10T11:40:18.626Z,58.60
2023-06-10T11:42:46.099Z,58.10
2023-06-10T11:45:16.683Z,56.50
2023-06-10T11:47:57.070Z,57.10
2023-06-10T11:50:30.161Z,59.00
2023-06-10T11:52:57.161Z,57.90
2023-06-10T11:55:26.142Z,59.20
2023-06-10T11:57:58.812Z,58.00
2023-06-10T12:00:26.155Z,59.00
2023-06-10T12:02:58.671Z,57.40
2023-06-10T12:05:26.233Z,57.60
2023-06-10T12:08:11.705Z,57.20
2023-06-10T12:10:43.481Z,56.90
2023-06-10T12:13:10.865Z,55.20
2023-06-10T12:15:38.247Z,55.70
2023-06-10T12:18:05.642Z,56.00
2023-06-10T12:20:37.438Z,55.40
2023-06-10T12:23:11.018Z,55.20
2023-06-10T12:25:40.717Z,56.40
2023-06-10T12:28:11.647Z,56.50
2023-06-10T12:30:38.615Z,56.60
2023-06-10T12:33:16.487Z,57.10
2023-06-10T12:35:49.041Z,57.20
2023-06-10T12:38:22.835Z,57.90
2023-06-10T12:40:49.749Z,57.20
2023-06-10T12:43:24.702Z,56.60
2023-06-10T12:45:52.016Z,56.80
2023-06-10T12:48:20.561Z,56.20
2023-06-10T12:50:52.171Z,55.60
2023-06-10T12:53:20.886Z,55.60
2023-06-10T12:55:48.379Z,55.90
2023-06-10T12:58:15.402Z,55.70
2023-06-10T13:00:44.069Z,54.40
2023-06-10T13:03:11.304Z,54.80
2023-06-10T13:05:39.967Z,55.30
2023-06-10T13:08:08.381Z,55.10
2023-06-10T13:10:36.077Z,55.20
2023-06-10T13:13:06.388Z,55.30
2023-06-10T13:15:33.521Z,55.30
2023-06-10T13:18:02.086Z,54.30
2023-06-10T13:20:29.252Z,54.50
2023-06-10T13:22:56.186Z,55.50
2023-06-10T13:25:23.132Z,54.70
2023-06-10T13:27:50.080Z,53.70
2023-06-10T13:30:17.104Z,54.20
2023-06-10T13:32:44.102Z,54.20
2023-06-10T13:35:12.683Z,54.80
2023-06-10T13:37:39.900Z,55.70
2023-06-10T13:40:08.953Z,55.60
2023-06-10T13:42:36.992Z,56.70
2023-06-10T13:45:05.135Z,57.10
2023-06-10T13:47:32.089Z,57.50
2023-06-10T13:49:59.193Z,58.10
2023-06-10T13:52:27.414Z,58.80
2023-06-10T13:54:54.347Z,59.00
2023-06-10T13:57:21.372Z,58.70
2023-06-10T13:59:48.279Z,57.70
2023-06-10T14:02:15.349Z,57.00
2023-06-10T14:04:42.279Z,56.10
2023-06-10T14:07:09.235Z,55.90
2023-06-10T14:09:37.490Z,56.20
2023-06-10T14:12:06.471Z,55.90
2023-06-10T14:14:34.245Z,56.20
2023-06-10T14:17:01.371Z,57.60
2023-06-10T14:19:28.445Z,57.60
2023-06-10T14:21:56.597Z,57.20
2023-06-10T14:24:23.816Z,56.80
2023-06-10T14:26:52.225Z,56.40
2023-06-10T14:29:20.295Z,57.20
2023-06-10T14:31:47.304Z,57.40
2023-06-10T14:34:14.381Z,57.50
2023-06-10T14:36:41.420Z,57.60
2023-06-10T14:39:08.325Z,57.50
2023-06-10T14:41:35.232Z,58.10
2023-06-10T14:44:03.691Z,58.50
2023-06-10T14:46:30.629Z,58.90
2023-06-10T14:48:57.822Z,59.00
2023-06-10T14:51:24.799Z,59.60
2023-06-10T14:53:51.844Z,60.00
2023-06-10T14:56:18.804Z,60.20
2023-06-10T14:58:45.752Z,60.90
2023-06-10T15:01:14.039Z,61.20
2023-06-10T15:03:41.065Z,61.90
2023-06-10T15:06:08.028Z,62.70
2023-06-10T15:08:34.989Z,62.70
2023-06-10T15:11:03.122Z,62.70
2023-06-10T15:13:30.046Z,63.10
2023-06-10T15:15:57.025Z,63.30
2023-06-10T15:18:25.639Z,63.30
2023-06-10T15:20:52.560Z,62.60
2023-06-10T15:23:19.472Z,62.20
2023-06-10T15:25:47.718Z,61.80
2023-06-10T15:28:14.648Z,62.00
2023-06-10T15:30:41.659Z,61.60
2023-06-10T15:33:08.681Z,61.60
2023-06-10T15:35:37.032Z,61.70
2023-06-10T15:38:04.018Z,62.00
2023-06-10T15:40:31.275Z,61.40
2023-06-10T15:42:58.233Z,61.40
2023-06-10T15:45:25.248Z,61.30
2023-06-10T15:47:52.337Z,61.30
2023-06-10T15:50:19.279Z,61.40
2023-06-10T15:52:48.171Z,61.40
2023-06-10T15:55:15.503Z,61.10
2023-06-10T15:57:42.464Z,61.60
2023-06-10T16:00:10.323Z,61.70
2023-06-10T16:02:37.770Z,62.20
2023-06-10T16:05:05.446Z,62.50
2023-06-10T16:07:32.517Z,62.70
2023-06-10T16:10:00.815Z,63.30
2023-06-10T16:12:27.902Z,62.90
2023-06-10T16:14:54.893Z,62.50
2023-06-10T16:17:22.203Z,62.90
2023-06-10T16:19:49.312Z,63.10
2023-06-10T16:22:16.300Z,63.70
2023-06-10T16:24:43.218Z,63.20
2023-06-10T16:27:11.615Z,63.50
2023-06-10T16:29:38.554Z,63.20
2023-06-10T16:32:06.644Z,62.30
2023-06-10T16:34:33.533Z,63.30
2023-06-10T16:37:00.445Z,63.40
2023-06-10T16:39:27.425Z,63.60
2023-06-10T16:41:54.361Z,63.90
2023-06-10T16:44:22.816Z,64.20
2023-06-10T16:46:49.802Z,64.40
2023-06-10T16:49:16.792Z,64.90
2023-06-10T16:51:43.772Z,65.00
2023-06-10T16:54:10.763Z,65.40
2023-06-10T16:56:37.676Z,65.30
2023-06-10T16:59:04.645Z,65.20
2023-06-10T17:01:32.990Z,64.80
2023-06-10T17:04:00.037Z,64.80
2023-06-10T17:06:27.116Z,65.90
2023-06-10T17:08:54.047Z,65.70
2023-06-10T17:11:22.545Z,66.20
2023-06-10T17:13:49.642Z,66.50
2023-06-10T17:16:16.892Z,66.20
2023-06-10T17:18:45.768Z,66.20
2023-06-10T17:21:12.809Z,66.70
2023-06-10T17:23:39.752Z,66.80
2023-06-10T17:26:06.650Z,67.70
2023-06-10T17:28:33.566Z,67.80
2023-06-10T17:31:00.533Z,68.00
2023-06-10T17:33:27.503Z,67.70
2023-06-10T17:35:55.924Z,67.60
2023-06-10T17:38:23.081Z,68.50
2023-06-10T17:40:49.993Z,69.00
2023-06-10T17:43:16.935Z,69.60
2023-06-10T17:45:44.162Z,70.30
2023-06-10T17:48:11.257Z,69.80
2023-06-10T17:50:38.235Z,70.10
2023-06-10T17:53:06.541Z,70.30
2023-06-10T17:55:33.679Z,70.30
2023-06-10T17:58:00.581Z,70.80
2023-06-10T18:00:27.620Z,70.40
2023-06-10T18:02:54.667Z,70.50
2023-06-10T18:05:21.830Z,70.70
2023-06-10T18:07:48.762Z,71.00
2023-06-10T18:10:17.103Z,71.10
2023-06-10T18:12:44.173Z,71.30
2023-06-10T18:15:11.594Z,71.90
2023-06-10T18:17:38.921Z,72.40
2023-06-10T18:20:07.070Z,72.80
2023-06-10T18:22:34.127Z,72.80
2023-06-10T18:25:05.724Z,73.70
2023-06-10T18:27:35.211Z,74.10
2023-06-10T18:30:02.411Z,73.40
2023-06-10T18:32:29.349Z,73.60
2023-06-10T18:34:56.284Z,73.20
2023-06-10T18:37:23.353Z,73.50
2023-06-10T18:39:50.459Z,73.80
2023-06-10T18:42:17.409Z,73.90
2023-06-10T18:44:46.514Z,73.50
2023-06-10T18:47:13.456Z,73.50
2023-06-10T18:49:40.464Z,73.90
2023-06-10T18:52:07.873Z,73.50
2023-06-10T18:54:35.996Z,73.60
2023-06-10T18:57:03.135Z,73.90
2023-06-10T18:59:30.045Z,73.90
2023-06-10T19:01:58.457Z,74.10
2023-06-10T19:04:25.534Z,74.00
2023-06-10T19:06:52.568Z,74.30
2023-06-10T19:09:19.833Z,74.40
2023-06-10T19:11:46.853Z,74.40
2023-06-10T19:14:14.074Z,74.80
2023-06-10T19:16:41.104Z,74.90
2023-06-10T19:19:09.430Z,74.80
2023-06-10T19:21:36.552Z,75.10
2023-06-10T19:24:04.361Z,75.20
2023-06-10T19:26:31.500Z,75.50
2023-06-10T19:28:58.418Z,75.60
2023-06-10T19:31:25.379Z,75.90
2023-06-10T19:33:52.310Z,75.80
2023-06-10T19:36:21.369Z,76.50
2023-06-10T19:38:48.304Z,76.70
2023-06-10T19:41:15.805Z,77.20
2023-06-10T19:43:43.459Z,78.40
2023-06-10T19:46:10.895Z,78.50
2023-06-10T19:48:37.941Z,79.00
2023-06-10T19:51:04.933Z,79.40
2023-06-10T19:53:33.206Z,79.70
2023-06-10T19:56:00.180Z,80.30
2023-06-10T19:58:27.144Z,80.50
2023-06-10T20:00:54.211Z,80.30
2023-06-10T20:03:21.896Z,80.50
2023-06-10T20:05:48.871Z,80.90
2023-06-10T20:08:15.969Z,81.30
2023-06-10T20:10:44.258Z,81.80
2023-06-10T20:13:11.308Z,82.00
2023-06-10T20:15:38.205Z,82.10
2023-06-10T20:18:05.452Z,82.60
2023-06-10T20:20:32.393Z,82.50
2023-06-10T20:22:59.307Z,83.10
2023-06-10T20:25:26.470Z,83.30
2023-06-10T20:27:54.797Z,83.50
2023-06-10T20:30:21.698Z,83.50
2023-06-10T20:32:48.652Z,83.70
2023-06-10T20:35:15.819Z,83.60
2023-06-10T20:37:42.745Z,84.20
2023-06-10T20:40:11.059Z,84.50
2023-06-10T20:42:37.951Z,85.20
2023-06-10T20:45:08.705Z,85.10
2023-06-10T20:47:36.108Z,85.70
2023-06-10T20:50:03.659Z,86.00
2023-06-10T20:52:30.604Z,86.50
2023-06-10T20:54:57.579Z,86.90
2023-06-10T20:57:24.887Z,87.20
2023-06-10T20:59:51.829Z,87.30
2023-06-10T21:02:20.254Z,88.50
2023-06-10T21:04:47.255Z,87.90
2023-06-10T21:07:14.166Z,87.90
2023-06-10T21:09:41.103Z,87.80
2023-06-10T21:12:08.661Z,88.00
2023-06-10T21:14:35.652Z,88.10
2023-06-10T21:17:02.579Z,88.30
2023-06-10T21:19:30.847Z,88.30
2023-06-10T21:21:57.905Z,88.70
2023-06-10T21:24:24.909Z,88.90
2023-06-10T21:26:51.998Z,89.00
2023-06-10T21:29:19.246Z,89.20
2023-06-10T21:31:46.284Z,89.40
2023-06-10T21:34:13.254Z,89.40
2023-06-10T21:36:41.666Z,89.30
2023-06-10T21:39:09.235Z,89.60
2023-06-10T21:41:36.193Z,89.70
2023-06-10T21:44:03.110Z,90.00
2023-06-10T21:46:30.106Z,90.20
2023-06-10T21:48:57.191Z,90.10
2023-06-10T21:51:24.132Z,90.30
2023-06-10T21:53:52.386Z,90.40
2023-06-10T21:56:19.553Z,90.60
2023-06-10T21:58:49.465Z,90.60
2023-06-10T22:01:16.901Z,90.60
2023-06-10T22:03:45.089Z,90.80
2023-06-10T22:06:12.128Z,90.60
2023-06-10T22:08:39.141Z,90.60
2023-06-10T22:11:07.926Z,90.60
2023-06-10T22:13:35.006Z,90.60
2023-06-10T22:16:02.015Z,90.60
2023-06-10T22:18:29.229Z,90.80
2023-06-10T22:20:56.131Z,90.80
2023-06-10T22:23:23.516Z,90.70
2023-06-10T22:25:50.615Z,90.70
2023-06-10T22:28:18.904Z,91.10
2023-06-10T22:30:46.713Z,91.00
2023-06-10T22:33:13.854Z,90.90
2023-06-10T22:35:40.807Z,91.10
2023-06-10T22:38:08.489Z,91.00
2023-06-10T22:40:35.392Z,91.20
2023-06-10T22:43:02.330Z,91.10
2023-06-10T22:45:30.656Z,91.60
2023-06-10T22:47:58.069Z,91.50
2023-06-10T22:50:25.260Z,91.50
2023-06-10T22:52:53.042Z,91.60
2023-06-10T22:55:20.023Z,91.80
2023-06-10T22:57:46.889Z,92.00
2023-06-10T23:00:15.854Z,92.00
2023-06-10T23:02:44.297Z,92.20
2023-06-10T23:05:14.127Z,92.10
2023-06-10T23:07:41.270Z,92.10
2023-06-10T23:10:09.155Z,92.20
2023-06-10T23:12:36.185Z,92.30
2023-06-10T23:15:03.773Z,92.30
2023-06-10T23:17:30.791Z,92.30
2023-06-10T23:19:59.588Z,92.30
2023-06-10T23:22:26.794Z,92.40
2023-06-10T23:24:57.344Z,92.50
2023-06-10T23:27:24.377Z,92.70
2023-06-10T23:29:59.415Z,92.90
2023-06-10T23:32:27.952Z,93.10
2023-06-10T23:34:55.338Z,93.30
2023-06-10T23:37:23.588Z,93.70
2023-06-10T23:39:50.485Z,93.80
2023-06-10T23:42:17.829Z,94.00
2023-06-10T23:44:44.885Z,94.30
2023-06-10T23:47:11.856Z,94.60
2023-06-10T23:49:38.801Z,94.70
2023-06-10T23:52:06.528Z,94.80
2023-06-10T23:54:34.947Z,94.90
2023-06-10T23:57:03.381Z,94.90
2023-06-10T23:59:30.411Z,94.90
